Time;durP1;ratioP1;P1;durP2;ratioP2;P2;SDS_P1;SDS_P2;PMS_P1;PMS_P2;Temp;Humidity;BMP_temperature;BMP_pressure;BME280_temperature;BME280_humidity;BME280_pressure;Samples;Min_cycle;Max_cycle;Signal;HPM_P1;HPM_P2
2024/01/12 00:01:29;;;;;;;34.53;21.80;;;;;;;0.39;100.00;103289.69;5022336;28;20421;-70
2024/01/12 00:04:17;;;;;;;29.55;20.10;;;;;;;0.38;100.00;103296.84;5051572;28;20122;-69
2024/01/12 00:07:05;;;;;;;30.83;20.20;;;;;;;0.39;100.00;103311.13;5038528;28;20537;-69
2024/01/12 00:09:53;;;;;;;34.95;21.33;;;;;;;0.39;100.00;103309.28;5041637;28;20620;-69
2024/01/12 00:12:42;;;;;;;33.35;20.70;;;;;;;0.39;100.00;103309.28;5052531;28;20045;-69
2024/01/12 00:15:30;;;;;;;27.67;19.67;;;;;;;0.41;100.00;103301.97;5042752;28;20060;-70
2024/01/12 00:18:18;;;;;;;29.85;20.35;;;;;;;0.41;100.00;103311.84;5056537;28;20136;-71
2024/01/12 00:21:07;;;;;;;29.67;19.88;;;;;;;0.41;100.00;103307.31;5052039;28;20049;-70
2024/01/12 00:23:55;;;;;;;29.15;19.40;;;;;;;0.42;100.00;103302.78;5034159;28;20041;-70
2024/01/12 00:26:43;;;;;;;28.65;18.83;;;;;;;0.42;100.00;103298.28;5036782;28;20503;-69
2024/01/12 00:29:31;;;;;;;29.77;20.27;;;;;;;0.42;100.00;103295.59;5006755;28;20049;-69
2024/01/12 00:32:19;;;;;;;27.85;19.70;;;;;;;0.44;100.00;103305.34;5044472;28;20052;-69
2024/01/12 00:35:07;;;;;;;27.33;19.52;;;;;;;0.39;100.00;103309.28;5041170;28;20048;-69
2024/01/12 00:37:55;;;;;;;30.23;19.90;;;;;;;0.39;100.00;103314.66;5054253;28;20067;-69
2024/01/12 00:40:44;;;;;;;31.30;20.40;;;;;;;0.39;100.00;103317.34;5048770;28;20049;-69
2024/01/12 00:43:33;;;;;;;29.48;19.58;;;;;;;0.42;100.00;103313.53;5015267;28;20421;-70
2024/01/12 00:46:21;;;;;;;32.13;20.63;;;;;;;0.42;100.00;103298.28;5035802;28;20081;-69
2024/01/12 00:49:09;;;;;;;29.02;19.17;;;;;;;0.44;100.00;103295.47;5008125;28;20062;-69
2024/01/12 00:51:57;;;;;;;28.77;19.65;;;;;;;0.46;100.00;103297.97;5028948;28;20563;-69
2024/01/12 00:54:45;;;;;;;28.77;19.45;;;;;;;0.45;100.00;103290.94;5033710;28;20099;-69
2024/01/12 00:57:33;;;;;;;29.35;20.17;;;;;;;0.45;100.00;103298.97;5078918;28;20106;-66
2024/01/12 01:00:21;;;;;;;29.88;20.00;;;;;;;0.46;100.00;103295.31;5082863;28;20076;-70
2024/01/12 01:03:09;;;;;;;29.10;19.77;;;;;;;0.46;100.00;103295.31;5055095;28;20095;-68
2024/01/12 01:05:57;;;;;;;29.92;19.23;;;;;;;0.46;100.00;103309.59;5076737;28;20073;-71
2024/01/12 01:08:45;;;;;;;29.85;19.38;;;;;;;0.46;100.00;103314.94;5075027;28;20049;-72
2024/01/12 01:11:34;;;;;;;30.27;19.92;;;;;;;0.47;100.00;103313.09;5052565;28;20041;-70
2024/01/12 01:14:24;;;;;;;30.70;20.73;;;;;;;0.48;100.00;103312.09;5056366;28;20390;-69
2024/01/12 01:17:13;;;;;;;30.05;19.92;;;;;;;0.48;100.00;103322.84;5041080;28;20202;-69
2024/01/12 01:20:02;;;;;;;30.08;20.52;;;;;;;0.47;100.00;103311.28;5036994;28;20059;-70
2024/01/12 01:22:51;;;;;;;28.55;20.10;;;;;;;0.48;100.00;103326.38;5038446;28;20436;-69
2024/01/12 01:25:39;;;;;;;30.63;19.92;;;;;;;0.49;100.00;103321.88;5054298;28;20052;-70
2024/01/12 01:28:27;;;;;;;32.05;21.67;;;;;;;0.49;100.00;103330.75;5054370;28;20068;-70
2024/01/12 01:31:15;;;;;;;31.85;20.95;;;;;;;0.48;100.00;103337.13;5024879;28;20499;-70
2024/01/12 01:34:03;;;;;;;30.17;21.40;;;;;;;0.47;100.00;103347.97;5014059;28;20044;-70
2024/01/12 01:36:51;;;;;;;30.65;20.75;;;;;;;0.48;100.00;103344.28;5013236;28;20053;-69
2024/01/12 01:39:39;;;;;;;33.90;20.42;;;;;;;0.51;100.00;103357.44;5037312;28;20106;-69
2024/01/12 01:42:27;;;;;;;31.27;22.02;;;;;;;0.52;100.00;103345.72;5028961;28;20052;-69
2024/01/12 01:45:16;;;;;;;30.63;20.73;;;;;;;0.53;100.00;103342.03;5063455;28;20049;-69
2024/01/12 01:48:05;;;;;;;30.45;21.08;;;;;;;0.54;100.00;103338.38;5014759;28;20080;-69
2024/01/12 01:50:54;;;;;;;30.50;21.00;;;;;;;0.55;100.00;103343.59;5046935;28;20508;-70
2024/01/12 01:53:42;;;;;;;33.17;21.52;;;;;;;0.57;100.00;103340.78;5026299;28;20045;-69
2024/01/12 01:56:32;;;;;;;33.45;21.10;;;;;;;0.59;100.00;103336.13;5057341;28;20118;-69
2024/01/12 01:59:20;;;;;;;30.50;20.17;;;;;;;0.58;100.00;103334.44;5039430;28;20413;-70
2024/01/12 02:02:08;;;;;;;32.15;21.48;;;;;;;0.57;100.00;103336.25;5035429;28;21554;-70
2024/01/12 02:04:58;;;;;;;30.55;21.10;;;;;;;0.59;100.00;103336.97;5039722;28;20045;-69
2024/01/12 02:07:46;;;;;;;31.88;20.98;;;;;;;0.61;100.00;103335.00;5037258;28;20063;-70
2024/01/12 02:10:34;;;;;;;29.85;20.92;;;;;;;0.61;100.00;103323.44;5037569;28;20175;-69
2024/01/12 02:13:22;;;;;;;28.70;20.05;;;;;;;0.61;100.00;103323.44;5045504;28;20037;-70
2024/01/12 02:16:10;;;;;;;30.80;20.33;;;;;;;0.61;100.00;103313.53;5058961;28;20417;-68
2024/01/12 02:18:58;;;;;;;29.30;20.35;;;;;;;0.61;100.00;103320.75;5059741;28;20090;-69
2024/01/12 02:21:46;;;;;;;31.85;21.17;;;;;;;0.62;100.00;103325.09;5062366;28;20045;-71
2024/01/12 02:24:34;;;;;;;33.17;21.33;;;;;;;0.63;100.00;103321.47;5061439;28;20056;-70
2024/01/12 02:27:22;;;;;;;32.28;21.23;;;;;;;0.62;100.00;103322.44;5050969;28;20040;-71
2024/01/12 02:30:11;;;;;;;31.60;21.05;;;;;;;0.62;100.00;103320.59;5029307;28;20118;-69
2024/01/12 02:33:05;;;;;;;31.00;21.38;;;;;;;0.61;100.00;103321.59;5045068;28;20065;-69
2024/01/12 02:35:54;;;;;;;30.23;20.35;;;;;;;0.61;100.00;103316.22;5008911;28;20509;-70
2024/01/12 02:38:49;;;;;;;29.77;20.55;;;;;;;0.63;100.00;103316.09;5059017;28;20408;-71
2024/01/12 02:41:37;;;;;;;30.50;20.85;;;;;;;0.64;100.00;103317.78;5026074;28;20045;-69
2024/01/12 02:44:25;;;;;;;31.23;22.23;;;;;;;0.65;100.00;103314.13;5027907;28;20041;-69
2024/01/12 02:47:13;;;;;;;30.75;21.23;;;;;;;0.66;100.00;103313.13;5053829;28;20045;-69
2024/01/12 02:50:01;;;;;;;30.92;20.40;;;;;;;0.66;100.00;103306.91;5053622;28;20049;-69
2024/01/12 02:52:49;;;;;;;31.48;21.00;;;;;;;0.67;100.00;103301.38;5035124;28;20056;-71
2024/01/12 02:55:37;;;;;;;31.08;21.13;;;;;;;0.66;100.00;103307.75;5022250;28;20410;-69
2024/01/12 02:58:25;;;;;;;31.58;20.90;;;;;;;0.67;100.00;103308.59;5019132;28;20620;-69
2024/01/12 03:01:13;;;;;;;30.27;20.92;;;;;;;0.66;100.00;103315.81;5029973;28;20048;-69
2024/01/12 03:04:01;;;;;;;30.42;20.65;;;;;;;0.67;100.00;103314.81;5024174;28;20097;-69
2024/01/12 03:06:50;;;;;;;29.50;20.05;;;;;;;0.70;100.00;103305.63;5045481;28;20045;-69
2024/01/12 03:09:38;;;;;;;30.17;21.00;;;;;;;0.70;100.00;103308.31;5053276;28;20418;-70
2024/01/12 03:12:26;;;;;;;29.63;19.88;;;;;;;0.70;100.00;103301.13;5052315;28;20049;-70
2024/01/12 03:15:15;;;;;;;29.25;20.27;;;;;;;0.70;100.00;103301.13;5053255;28;20048;-70
2024/01/12 03:18:03;;;;;;;31.50;21.05;;;;;;;0.70;100.00;103290.41;5052486;28;20132;-70
2024/01/12 03:20:52;;;;;;;32.00;21.17;;;;;;;0.71;100.00;103292.06;5038177;28;20053;-70
2024/01/12 03:23:40;;;;;;;31.23;20.88;;;;;;;0.71;100.00;103293.91;5053107;28;20084;-70
2024/01/12 03:26:28;;;;;;;30.92;20.90;;;;;;;0.71;100.00;103296.59;5035424;28;20049;-70
2024/01/12 03:29:18;;;;;;;32.28;21.17;;;;;;;0.70;100.00;103295.75;5038032;28;20048;-70
2024/01/12 03:32:07;;;;;;;30.50;21.00;;;;;;;0.72;100.00;103291.09;5051521;28;20045;-69
2024/01/12 03:34:56;;;;;;;31.73;21.10;;;;;;;0.72;100.00;103288.41;5069996;28;20052;-70
2024/01/12 03:37:45;;;;;;;32.00;20.13;;;;;;;0.72;100.00;103295.59;5052012;28;20049;-69
2024/01/12 03:40:33;;;;;;;31.58;21.73;;;;;;;0.72;100.00;103288.41;5024596;28;20064;-70
2024/01/12 03:43:21;;;;;;;30.88;20.80;;;;;;;0.73;100.00;103289.25;5018649;28;20417;-69
2024/01/12 03:46:09;;;;;;;31.70;21.30;;;;;;;0.72;100.00;103282.19;5044570;28;20477;-69
2024/01/12 03:48:57;;;;;;;31.73;20.35;;;;;;;0.74;100.00;103280.22;5055402;28;20048;-70
2024/01/12 03:51:48;;;;;;;29.52;20.45;;;;;;;0.75;100.00;103282.75;5027667;28;20045;-69
2024/01/12 03:54:36;;;;;;;30.17;20.35;;;;;;;0.74;100.00;103280.22;5021865;28;20452;-70
2024/01/12 03:57:24;;;;;;;29.98;20.63;;;;;;;0.75;100.00;103273.88;5036676;28;20179;-70
2024/01/12 04:00:12;;;;;;;30.80;21.40;;;;;;;0.75;100.00;103265.81;5056862;28;20059;-70
2024/01/12 04:03:00;;;;;;;31.80;20.88;;;;;;;0.75;100.00;103272.03;5055418;28;20195;-70
2024/01/12 04:05:48;;;;;;;32.38;21.27;;;;;;;0.76;100.00;103278.22;5041164;28;20055;-70
2024/01/12 04:08:37;;;;;;;30.50;20.92;;;;;;;0.76;100.00;103272.88;5029566;28;20068;-70
2024/01/12 04:11:25;;;;;;;30.77;21.02;;;;;;;0.78;100.00;103271.72;5027341;28;20052;-70
2024/01/12 04:14:13;;;;;;;30.67;20.63;;;;;;;0.78;100.00;103274.41;5049850;28;20492;-71
2024/01/12 04:17:01;;;;;;;30.05;21.30;;;;;;;0.79;100.00;103276.09;5071691;28;20112;-69
2024/01/12 04:19:49;;;;;;;32.05;21.38;;;;;;;0.79;100.00;103273.41;5076414;28;20048;-69
2024/01/12 04:22:37;;;;;;;30.52;20.25;;;;;;;0.79;100.00;103284.16;5063074;28;20041;-69
2024/01/12 04:25:25;;;;;;;29.92;21.08;;;;;;;0.79;100.00;103283.31;5055131;28;20450;-70
2024/01/12 04:28:13;;;;;;;34.72;21.55;;;;;;;0.79;100.00;103284.16;5044859;28;20044;-69
2024/01/12 04:31:02;;;;;;;31.67;21.48;;;;;;;0.79;100.00;103284.16;5054685;28;20045;-70
2024/01/12 04:33:51;;;;;;;31.65;21.15;;;;;;;0.80;100.00;103280.50;5041268;28;20061;-71
2024/01/12 04:36:39;;;;;;;30.92;21.00;;;;;;;0.81;100.00;103279.50;5011096;28;20045;-70
2024/01/12 04:39:27;;;;;;;33.88;21.00;;;;;;;0.81;100.00;103286.69;5027257;28;20417;-70
2024/01/12 04:42:15;;;;;;;31.77;21.20;;;;;;;0.81;100.00;103282.19;5055080;28;20048;-70
2024/01/12 04:45:04;;;;;;;31.52;21.50;;;;;;;0.82;100.00;103278.53;5057607;28;20045;-69
2024/01/12 04:47:52;;;;;;;32.85;21.35;;;;;;;0.83;100.00;103280.19;5070608;28;20041;-69
2024/01/12 04:50:40;;;;;;;28.40;20.15;;;;;;;0.83;100.00;103276.69;5033745;28;20049;-70
2024/01/12 04:53:28;;;;;;;32.00;21.45;;;;;;;0.84;100.00;103273.88;5020150;28;20136;-68
2024/01/12 04:56:17;;;;;;;30.20;20.90;;;;;;;0.88;100.00;103281.63;5052948;28;20055;-69
2024/01/12 04:59:05;;;;;;;29.30;19.40;;;;;;;0.87;100.00;103269.16;5061500;28;20048;-69
2024/01/12 05:01:53;;;;;;;30.13;20.30;;;;;;;0.87;100.00;103263.81;5033482;28;20049;-69
2024/01/12 05:04:41;;;;;;;34.95;21.15;;;;;;;0.88;100.00;103260.16;5021360;28;20132;-69
2024/01/12 05:07:29;;;;;;;27.10;17.50;;;;;;;0.90;100.00;103258.19;5052371;28;20048;-69
2024/01/12 05:10:17;;;;;;;25.83;9.95;;;;;;;0.92;100.00;103253.50;5037307;28;20041;-69
2024/01/12 05:13:05;;;;;;;28.10;15.55;;;;;;;0.97;100.00;103254.75;5036063;28;20041;-70
2024/01/12 05:15:53;;;;;;;30.35;15.73;;;;;;;0.99;100.00;103246.56;5038130;28;20044;-70
2024/01/12 05:18:41;;;;;;;25.67;16.38;;;;;;;0.99;100.00;103252.78;5073948;28;20052;-70
2024/01/12 05:21:29;;;;;;;28.70;16.73;;;;;;;1.00;100.00;103251.78;5052110;28;20486;-69
2024/01/12 05:24:17;;;;;;;27.27;16.35;;;;;;;1.00;100.00;103253.63;5073875;28;20062;-69
2024/01/12 05:27:05;;;;;;;28.88;16.73;;;;;;;1.01;100.00;103249.94;5065949;28;20132;-69
2024/01/12 05:29:53;;;;;;;28.92;18.25;;;;;;;1.02;100.00;103251.66;5022775;28;20046;-70
2024/01/12 05:32:41;;;;;;;30.40;18.52;;;;;;;1.02;100.00;103251.66;5056911;28;20041;-70
2024/01/12 05:35:29;;;;;;;31.83;18.88;;;;;;;1.03;100.00;103259.56;5077981;28;20041;-71
2024/01/12 05:38:17;;;;;;;28.35;17.73;;;;;;;1.03;100.00;103256.88;5074722;28;20810;-69
2024/01/12 05:41:06;;;;;;;30.00;16.73;;;;;;;1.03;100.00;103274.81;5027425;28;20056;-69
2024/01/12 05:43:57;;;;;;;31.45;17.08;;;;;;;1.04;100.00;103271.97;5035357;28;20060;-69
2024/01/12 05:46:46;;;;;;;29.67;18.10;;;;;;;1.03;100.00;103270.31;5021141;28;20076;-70
2024/01/12 05:49:35;;;;;;;31.73;18.17;;;;;;;1.02;100.00;103267.75;5064418;28;20128;-69
2024/01/12 05:52:23;;;;;;;25.88;14.38;;;;;;;1.03;100.00;103261.38;5034794;28;20091;-69
2024/01/12 05:55:11;;;;;;;32.40;12.85;;;;;;;1.06;100.00;103275.38;5041339;28;20489;-69
2024/01/12 05:57:59;;;;;;;28.90;13.70;;;;;;;1.06;100.00;103270.00;5025341;28;20052;-70
2024/01/12 06:00:47;;;;;;;23.77;14.07;;;;;;;1.06;100.00;103264.63;5073496;28;20056;-70
2024/01/12 06:03:35;;;;;;;27.67;14.80;;;;;;;1.09;100.00;103263.50;5054748;28;20051;-69
2024/01/12 06:06:24;;;;;;;27.75;14.80;;;;;;;1.10;100.00;103265.19;5052807;28;20044;-71
2024/01/12 06:09:12;;;;;;;29.20;14.13;;;;;;;1.12;100.00;103265.03;5022590;28;20037;-69
2024/01/12 06:12:00;;;;;;;27.90;13.73;;;;;;;1.13;100.00;103269.41;5046184;28;20049;-69
2024/01/12 06:14:49;;;;;;;24.08;13.13;;;;;;;1.13;100.00;103286.41;5039231;28;20049;-70
2024/01/12 06:17:37;;;;;;;26.88;12.73;;;;;;;1.14;100.00;103277.34;5026853;28;20061;-69
2024/01/12 06:20:28;;;;;;;23.90;13.00;;;;;;;1.14;100.00;103276.50;5052138;28;20049;-71
2024/01/12 06:23:16;;;;;;;26.17;13.18;;;;;;;1.15;100.00;103278.19;5051505;28;20048;-70
2024/01/12 06:26:05;;;;;;;30.05;12.43;;;;;;;1.14;100.00;103282.72;5052441;28;20053;-71
2024/01/12 06:28:53;;;;;;;24.98;11.23;;;;;;;1.15;100.00;103289.75;5034144;28;20049;-70
2024/01/12 06:31:41;;;;;;;26.48;11.90;;;;;;;1.17;100.00;103274.34;5056210;28;20045;-70
2024/01/12 06:34:29;;;;;;;30.25;13.57;;;;;;;1.18;100.00;103286.81;5056780;28;20052;-69
2024/01/12 06:37:17;;;;;;;30.30;13.35;;;;;;;1.18;100.00;103284.13;5056131;28;20134;-68
2024/01/12 06:40:06;;;;;;;27.48;12.82;;;;;;;1.17;100.00;103287.78;5026538;28;20057;-70
2024/01/12 06:42:54;;;;;;;26.17;13.13;;;;;;;1.18;100.00;103286.81;4994847;28;20092;-69
2024/01/12 06:45:42;;;;;;;28.77;12.80;;;;;;;1.19;100.00;103291.16;5018321;28;20057;-70
2024/01/12 06:48:30;;;;;;;26.58;12.15;;;;;;;1.22;100.00;103290.88;5020618;28;20049;-70
2024/01/12 06:51:23;;;;;;;22.70;11.88;;;;;;;1.24;100.00;103285.38;5038579;28;20059;-70
2024/01/12 06:54:11;;;;;;;24.95;11.73;;;;;;;1.26;100.00;103281.53;5053015;28;20049;-70
2024/01/12 06:57:00;;;;;;;24.38;10.90;;;;;;;1.27;100.00;103279.69;5053101;28;20527;-70
2024/01/12 06:59:48;;;;;;;25.25;11.10;;;;;;;1.27;100.00;103277.88;5038316;28;20045;-69
2024/01/12 07:02:36;;;;;;;23.35;11.25;;;;;;;1.27;100.00;103288.63;5056061;28;20052;-69
2024/01/12 07:05:25;;;;;;;22.45;10.10;;;;;;;1.28;100.00;103279.56;5043358;28;20048;-69
2024/01/12 07:08:16;;;;;;;21.80;9.98;;;;;;;1.30;100.00;103276.75;4336732;28;10000808;-69
2024/01/12 07:11:06;;;;;;;23.85;10.63;;;;;;;1.31;100.00;103273.06;5021139;28;20045;-71
2024/01/12 07:13:55;;;;;;;23.88;9.48;;;;;;;1.31;100.00;103262.31;5040594;28;20040;-71
2024/01/12 07:16:43;;;;;;;21.65;9.68;;;;;;;1.32;100.00;103263.16;5049464;28;20064;-69
2024/01/12 07:19:31;;;;;;;24.80;10.88;;;;;;;1.33;100.00;103264.84;5028415;28;20122;-70
2024/01/12 07:22:19;;;;;;;27.02;10.68;;;;;;;1.35;100.00;103262.84;5036308;28;20471;-70
2024/01/12 07:25:07;;;;;;;21.83;10.85;;;;;;;1.34;100.00;103261.16;5037335;28;20059;-70
2024/01/12 07:27:55;;;;;;;23.77;10.60;;;;;;;1.35;100.00;103257.47;5027437;28;20084;-71
2024/01/12 07:30:43;;;;;;;22.85;10.15;;;;;;;1.35;100.00;103268.22;5041713;28;20128;-71
2024/01/12 07:33:31;;;;;;;27.40;11.18;;;;;;;1.35;100.00;103273.59;5067641;28;20495;-72
2024/01/12 07:36:20;;;;;;;22.27;10.50;;;;;;;1.36;100.00;103275.31;5028964;28;20045;-70
2024/01/12 07:39:08;;;;;;;26.95;11.45;;;;;;;1.36;100.00;103275.31;5026680;28;20060;-70
2024/01/12 07:41:56;;;;;;;22.95;10.02;;;;;;;1.37;100.00;103271.59;5024259;28;20045;-68
2024/01/12 07:44:44;;;;;;;28.23;11.30;;;;;;;1.36;100.00;103264.56;5021673;28;20053;-69
2024/01/12 07:47:32;;;;;;;25.33;11.50;;;;;;;1.33;100.00;103259.47;5005718;28;20516;-70
2024/01/12 07:50:20;;;;;;;26.40;10.82;;;;;;;1.33;100.00;103264.84;5021962;28;20060;-70
2024/01/12 07:53:08;;;;;;;28.77;11.63;;;;;;;1.31;100.00;103256.09;5029003;28;20045;-70
2024/01/12 07:55:56;;;;;;;21.83;10.50;;;;;;;1.28;100.00;103258.06;5029764;28;20041;-71
2024/01/12 07:58:45;;;;;;;27.60;11.68;;;;;;;1.27;100.00;103264.44;5028569;28;20127;-68
2024/01/12 08:01:33;;;;;;;24.40;10.63;;;;;;;1.28;100.00;103263.44;5019014;28;20055;-69
2024/01/12 08:04:22;;;;;;;26.42;10.30;;;;;;;1.28;100.00;103262.59;5059101;28;20097;-69
2024/01/12 08:07:10;;;;;;;26.67;10.95;;;;;;;1.28;100.00;103268.81;5055233;28;20045;-69
2024/01/12 08:09:58;;;;;;;25.40;10.13;;;;;;;1.28;100.00;103273.34;5022236;28;20059;-70
2024/01/12 08:12:48;;;;;;;27.05;11.10;;;;;;;1.28;100.00;103265.28;5035540;28;20068;-70
2024/01/12 08:15:36;;;;;;;25.33;11.25;;;;;;;1.28;100.00;103274.19;5034198;28;20132;-71
2024/01/12 08:18:24;;;;;;;29.08;11.95;;;;;;;1.28;100.00;103282.25;5057124;28;20516;-69
2024/01/12 08:21:12;;;;;;;25.50;11.10;;;;;;;1.28;100.00;103279.56;5051254;28;20052;-69
2024/01/12 08:24:00;;;;;;;30.58;12.25;;;;;;;1.28;100.00;103276.88;5034504;28;20098;-73
2024/01/12 08:26:48;;;;;;;27.33;11.70;;;;;;;1.28;100.00;103274.19;5020505;28;20135;-68
2024/01/12 08:29:36;;;;;;;28.90;11.23;;;;;;;1.28;100.00;103279.56;5050488;28;20139;-68
2024/01/12 08:32:24;;;;;;;29.88;11.63;;;;;;;1.30;100.00;103282.13;5011622;28;20044;-69
2024/01/12 08:35:13;;;;;;;27.85;11.98;;;;;;;1.32;100.00;103279.25;5052515;28;20081;-69
2024/01/12 08:38:01;;;;;;;32.55;11.27;;;;;;;1.32;100.00;103284.63;5051907;28;20175;-69
2024/01/12 08:40:49;;;;;;;29.85;11.73;;;;;;;1.31;100.00;103280.25;5053265;28;20049;-68
2024/01/12 08:43:37;;;;;;;24.17;10.32;;;;;;;1.32;100.00;103274.72;5047945;28;20049;-71
2024/01/12 08:46:26;;;;;;;25.67;11.35;;;;;;;1.34;100.00;103279.97;5058093;28;20071;-70
2024/01/12 08:49:14;;;;;;;26.75;11.30;;;;;;;1.34;100.00;103282.66;5052788;28;20419;-69
2024/01/12 08:52:02;;;;;;;21.65;10.48;;;;;;;1.33;100.00;103286.34;5025118;28;20044;-69
2024/01/12 08:54:50;;;;;;;28.15;10.93;;;;;;;1.35;100.00;103290.56;5054300;28;20052;-69
2024/01/12 08:57:40;;;;;;;24.92;10.50;;;;;;;1.38;100.00;103279.53;5055361;28;20052;-69
2024/01/12 09:00:28;;;;;;;27.80;9.77;;;;;;;1.42;100.00;103274.69;5000141;28;20049;-68
2024/01/12 09:03:16;;;;;;;28.88;11.25;;;;;;;1.45;100.00;103277.13;5020763;28;20127;-68
2024/01/12 09:06:04;;;;;;;28.20;11.23;;;;;;;1.45;100.00;103269.06;5035644;28;20052;-67
2024/01/12 09:08:53;;;;;;;24.02;10.70;;;;;;;1.47;100.00;103267.06;5054719;28;20224;-67
2024/01/12 09:11:41;;;;;;;29.90;11.00;;;;;;;1.48;100.00;103272.28;5027044;28;20052;-68
2024/01/12 09:14:29;;;;;;;25.08;10.52;;;;;;;1.49;100.00;103265.94;5055898;28;20072;-67
2024/01/12 09:17:17;;;;;;;33.85;10.80;;;;;;;1.51;100.00;103263.06;5051133;28;20049;-67
2024/01/12 09:20:06;;;;;;;26.90;10.43;;;;;;;1.53;100.00;103266.47;5039220;28;20041;-68
2024/01/12 09:22:54;;;;;;;24.63;10.82;;;;;;;1.60;100.00;103267.56;5034206;28;20060;-68
2024/01/12 09:25:42;;;;;;;35.90;11.50;;;;;;;1.62;100.00;103272.81;5021396;28;20111;-69
2024/01/12 09:28:30;;;;;;;25.25;10.85;;;;;;;1.62;100.00;103275.50;5062327;28;20056;-68
2024/01/12 09:31:18;;;;;;;25.52;11.30;;;;;;;1.61;100.00;103282.72;5070785;28;20447;-67
2024/01/12 09:34:06;;;;;;;28.17;10.82;;;;;;;1.61;100.00;103274.66;5041784;28;20038;-67
2024/01/12 09:36:55;;;;;;;24.63;11.30;;;;;;;1.62;100.00;103272.81;5029665;28;20106;-67
2024/01/12 09:39:43;;;;;;;27.23;12.32;;;;;;;1.62;100.00;103265.59;5074465;28;20135;-66
2024/01/12 09:42:32;;;;;;;25.83;10.60;;;;;;;1.64;100.00;103271.66;5042316;28;20052;-70
2024/01/12 09:45:23;;;;;;;24.95;10.93;;;;;;;1.65;100.00;103259.91;5031531;28;20052;-69
2024/01/12 09:48:12;;;;;;;27.05;12.15;;;;;;;1.66;100.00;103258.94;5051101;28;20048;-69
2024/01/12 09:51:02;;;;;;;26.15;12.23;;;;;;;1.65;100.00;103265.28;5062606;28;20063;-69
2024/01/12 09:53:50;;;;;;;31.02;11.55;;;;;;;1.66;100.00;103266.13;5060620;28;20048;-69
2024/01/12 09:56:40;;;;;;;32.78;13.43;;;;;;;1.66;100.00;103264.31;5050166;28;20068;-70
2024/01/12 09:59:34;;;;;;;27.92;11.82;;;;;;;1.67;100.00;103265.13;5055820;28;20071;-69
2024/01/12 10:02:22;;;;;;;27.35;11.90;;;;;;;1.69;100.00;103261.31;5032193;28;20049;-71
2024/01/12 10:05:10;;;;;;;29.20;11.90;;;;;;;1.73;100.00;103269.06;5012436;28;20072;-70
2024/01/12 10:07:58;;;;;;;24.55;11.38;;;;;;;1.75;100.00;103267.06;5036654;28;20060;-68
2024/01/12 10:10:46;;;;;;;24.63;10.23;;;;;;;1.76;100.00;103275.00;5054471;28;20155;-68
2024/01/12 10:13:34;;;;;;;28.40;11.27;;;;;;;1.77;100.00;103278.53;5025423;28;20037;-67
2024/01/12 10:16:28;;;;;;;22.27;10.93;;;;;;;1.80;100.00;103288.97;5038928;28;20041;-68
2024/01/12 10:19:16;;;;;;;26.85;10.65;;;;;;;1.83;100.00;103288.69;5037827;28;20044;-69
2024/01/12 10:22:04;;;;;;;27.45;10.82;;;;;;;1.83;100.00;103288.69;5051871;28;20094;-69
2024/01/12 10:25:01;;;;;;;24.83;10.93;;;;;;;1.84;100.00;103279.63;5035687;28;20044;-68
2024/01/12 10:27:58;;;;;;;;;;;;;;;1.85;100.00;103276.81;5043868;28;20033;-68
2024/01/12 10:30:46;;;;;;;28.08;11.45;;;;;;;1.86;100.00;103277.63;5058586;28;20442;-70
2024/01/12 10:33:35;;;;;;;26.35;10.60;;;;;;;1.86;100.00;103270.41;5059055;28;20505;-67
2024/01/12 10:36:23;;;;;;;27.40;10.82;;;;;;;1.86;100.00;103258.81;5041042;28;20049;-70
2024/01/12 10:39:12;;;;;;;27.67;10.57;;;;;;;1.88;100.00;103257.69;5026970;28;20057;-69
2024/01/12 10:42:02;;;;;;;24.15;11.05;;;;;;;1.88;100.00;103265.75;5033091;28;20409;-69
2024/01/12 10:44:52;;;;;;;26.98;9.55;;;;;;;1.91;100.00;103265.44;5029805;28;20048;-68
2024/01/12 10:47:42;;;;;;;24.50;9.52;;;;;;;1.92;100.00;103263.59;5014190;28;20050;-67
2024/01/12 10:50:35;;;;;;;25.30;9.85;;;;;;;1.93;100.00;103259.91;5018952;28;20417;-70
2024/01/12 10:53:37;;;;;;;24.67;9.70;;;;;;;1.95;100.00;103257.06;5047030;28;20055;-67
2024/01/12 10:56:27;;;;;;;25.45;9.82;;;;;;;1.96;100.00;103253.38;5055389;28;20051;-66
2024/01/12 10:59:15;;;;;;;26.70;9.48;;;;;;;1.96;100.00;103256.91;5061140;28;20048;-69
2024/01/12 11:02:04;;;;;;;23.70;9.27;;;;;;;1.96;100.00;103248.84;5030642;28;20040;-67
2024/01/12 11:04:53;;;;;;;25.48;9.27;;;;;;;1.99;100.00;103245.00;5054993;28;20048;-68
2024/01/12 11:07:42;;;;;;;23.83;9.43;;;;;;;2.04;100.00;103245.41;5036611;28;20130;-68
2024/01/12 11:10:31;;;;;;;23.10;10.45;;;;;;;2.03;100.00;103244.56;5063271;28;20109;-69
2024/01/12 11:13:19;;;;;;;28.50;10.20;;;;;;;2.02;100.00;103253.63;5037372;28;20053;-68
2024/01/12 11:16:08;;;;;;;24.75;10.73;;;;;;;2.03;100.00;103244.56;5018298;28;20502;-67
2024/01/12 11:18:56;;;;;;;26.83;9.70;;;;;;;2.02;100.00;103250.06;5051608;28;20044;-66
2024/01/12 11:21:45;;;;;;;21.55;8.75;;;;;;;2.04;100.00;103243.56;5053583;28;20048;-66
2024/01/12 11:24:34;;;;;;;25.90;9.80;;;;;;;2.19;100.00;103241.22;5052375;28;20045;-68
2024/01/12 11:27:33;;;;;;;25.70;10.52;;;;;;;2.25;100.00;103237.06;5050742;28;20493;-68
2024/01/12 11:30:22;;;;;;;27.67;10.48;;;;;;;2.16;100.00;103246.88;5053413;28;20051;-69
2024/01/12 11:33:10;;;;;;;26.83;10.88;;;;;;;2.09;100.00;103246.66;5041053;28;20040;-68
2024/01/12 11:36:03;;;;;;;28.77;11.45;;;;;;;2.05;100.00;103245.25;5021423;28;20099;-68
2024/01/12 11:38:55;;;;;;;26.00;10.77;;;;;;;2.02;100.00;103248.25;5037401;28;20067;-68
2024/01/12 11:41:47;;;;;;;25.15;10.77;;;;;;;2.03;100.00;103247.25;5039462;28;20048;-68
2024/01/12 11:44:36;;;;;;;26.27;10.30;;;;;;;2.03;100.00;103252.63;5021640;28;20037;-68
2024/01/12 11:47:24;;;;;;;23.50;11.40;;;;;;;2.03;100.00;103247.25;5022313;28;20408;-69
2024/01/12 11:50:17;;;;;;;28.63;11.73;;;;;;;2.02;100.00;103245.56;5045785;28;20048;-70
2024/01/12 11:53:08;;;;;;;26.67;10.93;;;;;;;2.01;100.00;103233.09;5045568;28;20114;-68
2024/01/12 11:55:56;;;;;;;26.92;10.95;;;;;;;2.00;100.00;103230.59;5040888;28;20421;-69
2024/01/12 11:58:44;;;;;;;28.75;10.63;;;;;;;1.99;100.00;103224.34;5066412;28;20381;-68
2024/01/12 12:01:33;;;;;;;27.60;11.50;;;;;;;2.00;100.00;103225.22;5054768;28;20191;-68
2024/01/12 12:04:21;;;;;;;24.40;10.73;;;;;;;2.01;100.00;103222.34;5050113;28;20068;-71
2024/01/12 12:07:09;;;;;;;24.77;10.07;;;;;;;2.05;100.00;103217.53;5023116;28;20501;-69
2024/01/12 12:09:57;;;;;;;31.40;10.27;;;;;;;2.07;100.00;103205.63;5039099;28;20115;-70
2024/01/12 12:12:45;;;;;;;21.33;8.85;;;;;;;2.11;100.00;103201.59;5051176;28;20083;-69
2024/01/12 12:15:34;;;;;;;22.52;8.82;;;;;;;2.12;100.00;103186.34;5023465;28;20506;-68
2024/01/12 12:18:23;;;;;;;26.70;10.00;;;;;;;2.13;100.00;103186.16;5054581;28;20048;-68
2024/01/12 12:21:12;;;;;;;25.10;9.35;;;;;;;2.14;100.00;103189.69;5055851;28;20049;-67
2024/01/12 12:24:00;;;;;;;26.95;9.80;;;;;;;2.16;100.00;103179.63;5027030;28;20413;-69
2024/01/12 12:26:48;;;;;;;25.77;9.88;;;;;;;2.17;100.00;103183.19;5021617;28;20045;-68
2024/01/12 12:29:36;;;;;;;23.63;9.07;;;;;;;2.17;100.00;103162.53;5024352;28;20505;-68
2024/01/12 12:32:24;;;;;;;22.88;8.80;;;;;;;2.20;100.00;103161.38;5044345;28;20564;-67
2024/01/12 12:35:17;;;;;;;23.75;8.80;;;;;;;2.20;100.00;103159.50;5060834;28;20553;-68
2024/01/12 12:38:06;;;;;;;23.63;8.32;;;;;;;2.22;100.00;103159.38;5040583;28;20044;-68
2024/01/12 12:40:55;;;;;;;24.67;8.05;;;;;;;2.22;100.00;103154.00;5042384;28;20515;-68
2024/01/12 12:43:45;;;;;;;21.15;8.60;;;;;;;2.24;100.00;103150.16;5043541;28;20048;-68
2024/01/12 12:46:33;;;;;;;21.02;8.45;;;;;;;2.24;100.00;103136.69;5036765;28;20599;-68